sensor_id;sensor_type;location;lat;lon;timestamp;P1;durP1;ratioP1;P2;durP2;ratioP2
4214;SDS011;2121;48.062;7.850;2023-03-23T00:02:14;8.17;;;4.10;;
4214;SDS011;2121;48.062;7.850;2023-03-23T00:04:40;3.47;;;3.17;;
4214;SDS011;2121;48.062;7.850;2023-03-23T00:07:07;12.80;;;3.73;;
4214;SDS011;2121;48.062;7.850;2023-03-23T00:09:33;3.90;;;3.43;;
4214;SDS011;2121;48.062;7.850;2023-03-23T00:11:59;6.43;;;3.30;;
4214;SDS011;2121;48.062;7.850;2023-03-23T00:14:31;3.73;;;3.43;;
4214;SDS011;2121;48.062;7.850;2023-03-23T00:17:09;3.83;;;3.50;;
4214;SDS011;2121;48.062;7.850;2023-03-23T00:19:38;6.43;;;4.00;;
4214;SDS011;2121;48.062;7.850;2023-03-23T00:22:11;4.30;;;3.60;;
4214;SDS011;2121;48.062;7.850;2023-03-23T00:24:38;4.77;;;4.00;;
4214;SDS011;2121;48.062;7.850;2023-03-23T00:27:05;3.70;;;2.93;;
4214;SDS011;2121;48.062;7.850;2023-03-23T00:29:30;3.63;;;2.80;;
4214;SDS011;2121;48.062;7.850;2023-03-23T00:31:57;2.83;;;2.63;;
4214;SDS011;2121;48.062;7.850;2023-03-23T00:34:23;6.60;;;3.10;;
4214;SDS011;2121;48.062;7.850;2023-03-23T00:36:53;4.00;;;3.13;;
4214;SDS011;2121;48.062;7.850;2023-03-23T00:39:21;2.83;;;2.70;;
4214;SDS011;2121;48.062;7.850;2023-03-23T00:41:52;3.00;;;2.80;;
4214;SDS011;2121;48.062;7.850;2023-03-23T00:44:25;5.10;;;3.03;;
4214;SDS011;2121;48.062;7.850;2023-03-23T00:46:56;6.57;;;2.80;;
4214;SDS011;2121;48.062;7.850;2023-03-23T00:49:24;3.60;;;3.30;;
4214;SDS011;2121;48.062;7.850;2023-03-23T00:51:51;3.90;;;3.10;;
4214;SDS011;2121;48.062;7.850;2023-03-23T00:54:18;3.20;;;2.90;;
4214;SDS011;2121;48.062;7.850;2023-03-23T00:56:45;4.00;;;3.27;;
4214;SDS011;2121;48.062;7.850;2023-03-23T00:59:10;6.23;;;3.20;;
4214;SDS011;2121;48.062;7.850;2023-03-23T01:01:36;3.67;;;2.97;;
4214;SDS011;2121;48.062;7.850;2023-03-23T01:04:03;2.60;;;2.40;;
4214;SDS011;2121;48.062;7.850;2023-03-23T01:06:39;4.30;;;2.97;;
4214;SDS011;2121;48.062;7.850;2023-03-23T01:09:07;5.70;;;2.20;;
4214;SDS011;2121;48.062;7.850;2023-03-23T01:11:40;4.70;;;2.70;;
4214;SDS011;2121;48.062;7.850;2023-03-23T01:14:07;2.53;;;2.33;;
4214;SDS011;2121;48.062;7.850;2023-03-23T01:16:33;3.00;;;2.67;;
4214;SDS011;2121;48.062;7.850;2023-03-23T01:18:59;2.23;;;2.13;;
4214;SDS011;2121;48.062;7.850;2023-03-23T01:21:25;2.07;;;1.97;;
4214;SDS011;2121;48.062;7.850;2023-03-23T01:23:51;3.60;;;2.27;;
4214;SDS011;2121;48.062;7.850;2023-03-23T01:26:18;1.93;;;1.83;;
4214;SDS011;2121;48.062;7.850;2023-03-23T01:28:47;1.87;;;1.77;;
4214;SDS011;2121;48.062;7.850;2023-03-23T01:31:17;2.30;;;2.20;;
4214;SDS011;2121;48.062;7.850;2023-03-23T01:33:46;2.33;;;2.13;;
4214;SDS011;2121;48.062;7.850;2023-03-23T01:36:14;1.90;;;1.80;;
4214;SDS011;2121;48.062;7.850;2023-03-23T01:38:47;3.73;;;1.80;;
4214;SDS011;2121;48.062;7.850;2023-03-23T01:41:15;2.03;;;1.93;;
4214;SDS011;2121;48.062;7.850;2023-03-23T01:46:29;1.70;;;1.60;;
4214;SDS011;2121;48.062;7.850;2023-03-23T01:49:10;2.20;;;2.00;;
4214;SDS011;2121;48.062;7.850;2023-03-23T01:51:43;1.93;;;1.83;;
4214;SDS011;2121;48.062;7.850;2023-03-23T01:54:15;1.77;;;1.67;;
4214;SDS011;2121;48.062;7.850;2023-03-23T01:56:47;7.83;;;2.63;;
4214;SDS011;2121;48.062;7.850;2023-03-23T01:59:24;2.90;;;2.70;;
4214;SDS011;2121;48.062;7.850;2023-03-23T02:01:53;2.00;;;1.90;;
4214;SDS011;2121;48.062;7.850;2023-03-23T02:04:20;5.80;;;2.07;;
4214;SDS011;2121;48.062;7.850;2023-03-23T02:06:48;2.00;;;1.80;;
4214;SDS011;2121;48.062;7.850;2023-03-23T02:09:16;2.60;;;2.00;;
4214;SDS011;2121;48.062;7.850;2023-03-23T02:11:43;1.90;;;1.80;;
4214;SDS011;2121;48.062;7.850;2023-03-23T02:14:11;4.70;;;1.87;;
4214;SDS011;2121;48.062;7.850;2023-03-23T02:16:40;2.30;;;2.10;;
4214;SDS011;2121;48.062;7.850;2023-03-23T02:37:11;1.70;;;1.60;;
4214;SDS011;2121;48.062;7.850;2023-03-23T02:39:51;1.90;;;1.80;;
4214;SDS011;2121;48.062;7.850;2023-03-23T02:42:31;1.80;;;1.70;;
4214;SDS011;2121;48.062;7.850;2023-03-23T02:45:04;2.00;;;1.80;;
4214;SDS011;2121;48.062;7.850;2023-03-23T02:47:34;1.83;;;1.73;;
4214;SDS011;2121;48.062;7.850;2023-03-23T02:50:03;2.30;;;2.10;;
4214;SDS011;2121;48.062;7.850;2023-03-23T02:52:33;1.60;;;1.50;;
4214;SDS011;2121;48.062;7.850;2023-03-23T02:55:01;1.93;;;1.80;;
4214;SDS011;2121;48.062;7.850;2023-03-23T02:57:28;1.70;;;1.60;;
4214;SDS011;2121;48.062;7.850;2023-03-23T02:59:55;2.10;;;1.90;;
4214;SDS011;2121;48.062;7.850;2023-03-23T03:02:22;1.73;;;1.63;;
4214;SDS011;2121;48.062;7.850;2023-03-23T03:08:24;1.90;;;1.80;;
4214;SDS011;2121;48.062;7.850;2023-03-23T03:11:14;2.80;;;1.60;;
4214;SDS011;2121;48.062;7.850;2023-03-23T03:13:46;1.60;;;1.50;;
4214;SDS011;2121;48.062;7.850;2023-03-23T03:16:46;1.23;;;1.23;;
4214;SDS011;2121;48.062;7.850;2023-03-23T03:21:54;2.40;;;1.60;;
4214;SDS011;2121;48.062;7.850;2023-03-23T03:24:24;2.30;;;1.80;;
4214;SDS011;2121;48.062;7.850;2023-03-23T03:26:53;1.80;;;1.70;;
4214;SDS011;2121;48.062;7.850;2023-03-23T03:29:32;2.50;;;1.90;;
4214;SDS011;2121;48.062;7.850;2023-03-23T03:32:02;3.00;;;1.70;;
4214;SDS011;2121;48.062;7.850;2023-03-23T03:34:31;2.40;;;2.00;;
4214;SDS011;2121;48.062;7.850;2023-03-23T03:36:58;1.80;;;1.70;;
4214;SDS011;2121;48.062;7.850;2023-03-23T03:39:25;1.80;;;1.70;;
4214;SDS011;2121;48.062;7.850;2023-03-23T03:41:52;2.20;;;1.80;;
4214;SDS011;2121;48.062;7.850;2023-03-23T03:44:19;2.10;;;1.73;;
4214;SDS011;2121;48.062;7.850;2023-03-23T03:46:45;1.87;;;1.77;;
4214;SDS011;2121;48.062;7.850;2023-03-23T03:49:11;2.30;;;2.10;;
4214;SDS011;2121;48.062;7.850;2023-03-23T03:51:38;1.97;;;1.87;;
4214;SDS011;2121;48.062;7.850;2023-03-23T03:54:05;2.20;;;2.00;;
4214;SDS011;2121;48.062;7.850;2023-03-23T03:56:31;1.90;;;1.80;;
4214;SDS011;2121;48.062;7.850;2023-03-23T03:59:00;1.80;;;1.70;;
4214;SDS011;2121;48.062;7.850;2023-03-23T04:01:25;3.67;;;2.50;;
4214;SDS011;2121;48.062;7.850;2023-03-23T04:03:51;2.33;;;2.10;;
4214;SDS011;2121;48.062;7.850;2023-03-23T04:06:17;1.80;;;1.70;;
4214;SDS011;2121;48.062;7.850;2023-03-23T04:08:43;2.10;;;1.63;;
4214;SDS011;2121;48.062;7.850;2023-03-23T04:11:11;2.00;;;1.80;;
4214;SDS011;2121;48.062;7.850;2023-03-23T04:13:39;2.00;;;1.90;;
4214;SDS011;2121;48.062;7.850;2023-03-23T04:16:05;2.13;;;1.93;;
4214;SDS011;2121;48.062;7.850;2023-03-23T04:18:32;2.17;;;2.00;;
4214;SDS011;2121;48.062;7.850;2023-03-23T04:20:59;2.17;;;2.07;;
4214;SDS011;2121;48.062;7.850;2023-03-23T04:23:27;2.40;;;1.93;;
4214;SDS011;2121;48.062;7.850;2023-03-23T04:25:55;2.60;;;2.10;;
4214;SDS011;2121;48.062;7.850;2023-03-23T04:28:23;1.97;;;1.77;;
4214;SDS011;2121;48.062;7.850;2023-03-23T04:30:50;2.70;;;1.93;;
4214;SDS011;2121;48.062;7.850;2023-03-23T04:33:21;1.90;;;1.80;;
4214;SDS011;2121;48.062;7.850;2023-03-23T04:35:50;2.03;;;1.93;;
4214;SDS011;2121;48.062;7.850;2023-03-23T04:38:18;1.80;;;1.60;;
4214;SDS011;2121;48.062;7.850;2023-03-23T04:40:45;4.57;;;2.03;;
4214;SDS011;2121;48.062;7.850;2023-03-23T04:43:12;1.80;;;1.70;;
4214;SDS011;2121;48.062;7.850;2023-03-23T04:45:40;2.20;;;2.10;;
4214;SDS011;2121;48.062;7.850;2023-03-23T04:48:11;1.97;;;1.87;;
4214;SDS011;2121;48.062;7.850;2023-03-23T04:50:37;2.50;;;2.13;;
4214;SDS011;2121;48.062;7.850;2023-03-23T04:53:03;2.20;;;2.10;;
4214;SDS011;2121;48.062;7.850;2023-03-23T04:55:29;2.17;;;1.97;;
4214;SDS011;2121;48.062;7.850;2023-03-23T04:58:01;2.60;;;1.97;;
4214;SDS011;2121;48.062;7.850;2023-03-23T05:00:31;3.70;;;2.00;;
4214;SDS011;2121;48.062;7.850;2023-03-23T05:02:58;2.17;;;2.07;;
4214;SDS011;2121;48.062;7.850;2023-03-23T05:05:25;2.23;;;2.13;;
4214;SDS011;2121;48.062;7.850;2023-03-23T05:07:54;2.50;;;2.37;;
4214;SDS011;2121;48.062;7.850;2023-03-23T05:10:20;3.17;;;2.30;;
4214;SDS011;2121;48.062;7.850;2023-03-23T05:12:46;2.30;;;1.93;;
4214;SDS011;2121;48.062;7.850;2023-03-23T05:15:13;1.80;;;1.70;;
4214;SDS011;2121;48.062;7.850;2023-03-23T05:17:41;2.13;;;2.03;;
4214;SDS011;2121;48.062;7.850;2023-03-23T05:20:12;3.90;;;1.97;;
4214;SDS011;2121;48.062;7.850;2023-03-23T05:22:43;4.60;;;2.03;;
4214;SDS011;2121;48.062;7.850;2023-03-23T05:25:09;2.50;;;2.20;;
4214;SDS011;2121;48.062;7.850;2023-03-23T05:27:38;2.10;;;2.00;;
4214;SDS011;2121;48.062;7.850;2023-03-23T05:30:08;2.67;;;2.43;;
4214;SDS011;2121;48.062;7.850;2023-03-23T05:32:34;2.30;;;2.10;;
4214;SDS011;2121;48.062;7.850;2023-03-23T05:35:02;2.20;;;2.10;;
4214;SDS011;2121;48.062;7.850;2023-03-23T05:37:29;5.77;;;3.00;;
4214;SDS011;2121;48.062;7.850;2023-03-23T05:39:57;7.30;;;2.70;;
4214;SDS011;2121;48.062;7.850;2023-03-23T05:42:30;2.30;;;2.10;;
4214;SDS011;2121;48.062;7.850;2023-03-23T05:44:57;2.37;;;2.27;;
4214;SDS011;2121;48.062;7.850;2023-03-23T05:47:24;2.50;;;2.30;;
4214;SDS011;2121;48.062;7.850;2023-03-23T05:49:50;3.93;;;2.50;;
4214;SDS011;2121;48.062;7.850;2023-03-23T05:52:17;2.20;;;2.10;;
4214;SDS011;2121;48.062;7.850;2023-03-23T05:54:43;2.17;;;2.07;;
4214;SDS011;2121;48.062;7.850;2023-03-23T05:57:10;2.40;;;2.20;;
4214;SDS011;2121;48.062;7.850;2023-03-23T05:59:36;2.53;;;2.37;;
4214;SDS011;2121;48.062;7.850;2023-03-23T06:02:02;2.60;;;2.40;;
4214;SDS011;2121;48.062;7.850;2023-03-23T06:04:29;2.60;;;2.40;;
4214;SDS011;2121;48.062;7.850;2023-03-23T06:06:55;2.10;;;1.97;;
4214;SDS011;2121;48.062;7.850;2023-03-23T06:09:21;2.43;;;2.23;;
4214;SDS011;2121;48.062;7.850;2023-03-23T06:11:48;2.53;;;2.33;;
4214;SDS011;2121;48.062;7.850;2023-03-23T06:14:14;2.73;;;2.53;;
4214;SDS011;2121;48.062;7.850;2023-03-23T06:16:41;2.73;;;2.53;;
4214;SDS011;2121;48.062;7.850;2023-03-23T06:19:07;3.53;;;2.37;;
4214;SDS011;2121;48.062;7.850;2023-03-23T06:21:32;2.43;;;2.20;;
4214;SDS011;2121;48.062;7.850;2023-03-23T06:23:59;2.60;;;2.40;;
4214;SDS011;2121;48.062;7.850;2023-03-23T06:26:27;2.93;;;2.70;;
4214;SDS011;2121;48.062;7.850;2023-03-23T06:29:04;2.57;;;2.37;;
4214;SDS011;2121;48.062;7.850;2023-03-23T06:31:41;2.87;;;2.37;;
4214;SDS011;2121;48.062;7.850;2023-03-23T06:34:12;4.23;;;2.37;;
4214;SDS011;2121;48.062;7.850;2023-03-23T06:36:39;2.67;;;2.47;;
4214;SDS011;2121;48.062;7.850;2023-03-23T06:39:05;4.83;;;2.33;;
4214;SDS011;2121;48.062;7.850;2023-03-23T06:41:31;2.30;;;2.20;;
4214;SDS011;2121;48.062;7.850;2023-03-23T06:43:58;2.50;;;2.30;;
4214;SDS011;2121;48.062;7.850;2023-03-23T06:46:25;4.00;;;2.70;;
4214;SDS011;2121;48.062;7.850;2023-03-23T06:48:52;3.00;;;2.70;;
4214;SDS011;2121;48.062;7.850;2023-03-23T06:51:19;2.73;;;2.47;;
4214;SDS011;2121;48.062;7.850;2023-03-23T06:53:45;2.67;;;2.50;;
4214;SDS011;2121;48.062;7.850;2023-03-23T06:56:11;2.43;;;2.33;;
4214;SDS011;2121;48.062;7.850;2023-03-23T06:58:38;2.40;;;2.20;;
4214;SDS011;2121;48.062;7.850;2023-03-23T07:01:04;2.37;;;2.17;;
4214;SDS011;2121;48.062;7.850;2023-03-23T07:03:31;2.57;;;2.47;;
4214;SDS011;2121;48.062;7.850;2023-03-23T07:05:57;3.30;;;2.30;;
4214;SDS011;2121;48.062;7.850;2023-03-23T07:08:24;4.10;;;2.67;;
4214;SDS011;2121;48.062;7.850;2023-03-23T07:10:51;2.50;;;2.30;;
4214;SDS011;2121;48.062;7.850;2023-03-23T07:13:19;3.13;;;2.73;;
4214;SDS011;2121;48.062;7.850;2023-03-23T07:15:45;2.67;;;2.50;;
4214;SDS011;2121;48.062;7.850;2023-03-23T07:18:12;3.20;;;2.40;;
4214;SDS011;2121;48.062;7.850;2023-03-23T07:20:37;2.50;;;2.30;;
4214;SDS011;2121;48.062;7.850;2023-03-23T07:23:04;3.57;;;2.93;;
4214;SDS011;2121;48.062;7.850;2023-03-23T07:25:32;2.40;;;2.20;;
4214;SDS011;2121;48.062;7.850;2023-03-23T07:28:00;4.07;;;2.47;;
4214;SDS011;2121;48.062;7.850;2023-03-23T07:30:27;4.43;;;2.97;;
4214;SDS011;2121;48.062;7.850;2023-03-23T07:32:56;2.87;;;2.43;;
4214;SDS011;2121;48.062;7.850;2023-03-23T07:35:23;3.10;;;2.80;;
4214;SDS011;2121;48.062;7.850;2023-03-23T07:37:50;3.27;;;2.93;;
4214;SDS011;2121;48.062;7.850;2023-03-23T07:40:17;3.80;;;2.83;;
4214;SDS011;2121;48.062;7.850;2023-03-23T07:42:45;3.73;;;2.60;;
4214;SDS011;2121;48.062;7.850;2023-03-23T07:45:17;2.50;;;2.30;;
4214;SDS011;2121;48.062;7.850;2023-03-23T07:47:42;3.10;;;2.37;;
4214;SDS011;2121;48.062;7.850;2023-03-23T07:50:08;5.00;;;2.73;;
4214;SDS011;2121;48.062;7.850;2023-03-23T07:52:35;2.40;;;2.20;;
4214;SDS011;2121;48.062;7.850;2023-03-23T07:55:02;2.70;;;2.50;;
4214;SDS011;2121;48.062;7.850;2023-03-23T07:57:31;2.50;;;2.30;;
4214;SDS011;2121;48.062;7.850;2023-03-23T07:59:58;2.43;;;2.23;;
4214;SDS011;2121;48.062;7.850;2023-03-23T08:02:24;5.40;;;3.30;;
4214;SDS011;2121;48.062;7.850;2023-03-23T08:04:51;2.60;;;2.37;;
4214;SDS011;2121;48.062;7.850;2023-03-23T08:07:18;3.33;;;2.60;;
4214;SDS011;2121;48.062;7.850;2023-03-23T08:09:45;2.50;;;2.30;;
4214;SDS011;2121;48.062;7.850;2023-03-23T08:12:13;4.00;;;2.70;;
4214;SDS011;2121;48.062;7.850;2023-03-23T08:14:38;3.50;;;2.77;;
4214;SDS011;2121;48.062;7.850;2023-03-23T08:17:06;5.60;;;3.20;;
4214;SDS011;2121;48.062;7.850;2023-03-23T08:19:34;3.00;;;2.53;;
4214;SDS011;2121;48.062;7.850;2023-03-23T08:22:02;5.20;;;2.47;;
4214;SDS011;2121;48.062;7.850;2023-03-23T08:24:29;2.37;;;2.17;;
4214;SDS011;2121;48.062;7.850;2023-03-23T08:26:57;2.70;;;2.37;;
4214;SDS011;2121;48.062;7.850;2023-03-23T08:29:24;4.80;;;3.00;;
4214;SDS011;2121;48.062;7.850;2023-03-23T08:31:50;4.13;;;2.73;;
4214;SDS011;2121;48.062;7.850;2023-03-23T08:34:16;2.53;;;2.30;;
4214;SDS011;2121;48.062;7.850;2023-03-23T08:36:42;2.57;;;2.47;;
4214;SDS011;2121;48.062;7.850;2023-03-23T08:39:09;6.70;;;2.50;;
4214;SDS011;2121;48.062;7.850;2023-03-23T08:41:35;3.70;;;2.67;;
4214;SDS011;2121;48.062;7.850;2023-03-23T08:44:01;2.33;;;2.13;;
4214;SDS011;2121;48.062;7.850;2023-03-23T08:46:28;4.27;;;3.00;;
4214;SDS011;2121;48.062;7.850;2023-03-23T08:48:54;2.40;;;2.30;;
4214;SDS011;2121;48.062;7.850;2023-03-23T08:51:19;4.27;;;3.87;;
4214;SDS011;2121;48.062;7.850;2023-03-23T08:53:46;2.77;;;2.57;;
4214;SDS011;2121;48.062;7.850;2023-03-23T08:56:12;3.37;;;3.07;;
4214;SDS011;2121;48.062;7.850;2023-03-23T08:58:38;3.00;;;2.30;;
4214;SDS011;2121;48.062;7.850;2023-03-23T09:01:05;2.70;;;2.50;;
4214;SDS011;2121;48.062;7.850;2023-03-23T09:03:33;4.70;;;2.60;;
4214;SDS011;2121;48.062;7.850;2023-03-23T09:06:03;2.43;;;2.20;;
4214;SDS011;2121;48.062;7.850;2023-03-23T09:08:31;3.40;;;2.80;;
4214;SDS011;2121;48.062;7.850;2023-03-23T09:11:08;3.80;;;2.53;;
4214;SDS011;2121;48.062;7.850;2023-03-23T09:13:35;3.10;;;2.77;;
4214;SDS011;2121;48.062;7.850;2023-03-23T09:16:03;4.67;;;3.03;;
4214;SDS011;2121;48.062;7.850;2023-03-23T09:18:30;4.83;;;3.60;;
4214;SDS011;2121;48.062;7.850;2023-03-23T09:21:00;3.73;;;3.07;;
4214;SDS011;2121;48.062;7.850;2023-03-23T09:23:26;5.43;;;2.87;;
4214;SDS011;2121;48.062;7.850;2023-03-23T09:25:52;3.00;;;2.53;;
4214;SDS011;2121;48.062;7.850;2023-03-23T09:28:19;3.30;;;2.93;;
4214;SDS011;2121;48.062;7.850;2023-03-23T09:30:45;3.20;;;2.87;;
4214;SDS011;2121;48.062;7.850;2023-03-23T09:33:12;4.53;;;3.13;;
4214;SDS011;2121;48.062;7.850;2023-03-23T09:35:39;3.50;;;2.70;;
4214;SDS011;2121;48.062;7.850;2023-03-23T09:38:06;7.53;;;3.33;;
4214;SDS011;2121;48.062;7.850;2023-03-23T09:40:47;3.00;;;2.70;;
4214;SDS011;2121;48.062;7.850;2023-03-23T09:49:15;2.63;;;2.50;;
4214;SDS011;2121;48.062;7.850;2023-03-23T09:51:59;4.13;;;2.73;;
4214;SDS011;2121;48.062;7.850;2023-03-23T09:54:36;3.77;;;2.87;;
4214;SDS011;2121;48.062;7.850;2023-03-23T09:57:15;3.50;;;2.97;;
4214;SDS011;2121;48.062;7.850;2023-03-23T10:00:09;2.70;;;2.20;;
4214;SDS011;2121;48.062;7.850;2023-03-23T10:05:52;1.90;;;1.80;;
4214;SDS011;2121;48.062;7.850;2023-03-23T10:08:21;2.93;;;2.57;;
4214;SDS011;2121;48.062;7.850;2023-03-23T10:19:25;2.10;;;2.00;;
4214;SDS011;2121;48.062;7.850;2023-03-23T10:22:03;2.40;;;2.30;;
4214;SDS011;2121;48.062;7.850;2023-03-23T10:24:35;2.63;;;2.43;;
4214;SDS011;2121;48.062;7.850;2023-03-23T10:30:12;2.10;;;2.00;;
4214;SDS011;2121;48.062;7.850;2023-03-23T10:32:55;2.30;;;2.20;;
4214;SDS011;2121;48.062;7.850;2023-03-23T10:35:44;5.63;;;1.90;;
4214;SDS011;2121;48.062;7.850;2023-03-23T10:38:37;2.00;;;1.90;;
4214;SDS011;2121;48.062;7.850;2023-03-23T10:41:24;4.83;;;2.67;;
4214;SDS011;2121;48.062;7.850;2023-03-23T10:43:51;9.80;;;3.17;;
4214;SDS011;2121;48.062;7.850;2023-03-23T10:46:27;2.33;;;2.13;;
4214;SDS011;2121;48.062;7.850;2023-03-23T10:49:06;2.20;;;2.00;;
4214;SDS011;2121;48.062;7.850;2023-03-23T10:51:37;2.07;;;1.97;;
4214;SDS011;2121;48.062;7.850;2023-03-23T10:54:08;2.13;;;1.97;;
4214;SDS011;2121;48.062;7.850;2023-03-23T10:56:36;3.33;;;1.90;;
4214;SDS011;2121;48.062;7.850;2023-03-23T10:59:18;4.07;;;2.40;;
4214;SDS011;2121;48.062;7.850;2023-03-23T11:01:52;1.83;;;1.73;;
4214;SDS011;2121;48.062;7.850;2023-03-23T11:04:24;4.33;;;2.60;;
4214;SDS011;2121;48.062;7.850;2023-03-23T11:06:51;2.50;;;2.30;;
4214;SDS011;2121;48.062;7.850;2023-03-23T11:09:34;2.20;;;2.10;;
4214;SDS011;2121;48.062;7.850;2023-03-23T11:12:03;1.90;;;1.80;;
4214;SDS011;2121;48.062;7.850;2023-03-23T11:14:33;2.87;;;1.90;;
4214;SDS011;2121;48.062;7.850;2023-03-23T11:17:04;2.30;;;2.20;;
4214;SDS011;2121;48.062;7.850;2023-03-23T11:19:49;2.27;;;2.07;;
4214;SDS011;2121;48.062;7.850;2023-03-23T11:22:26;1.80;;;1.70;;
4214;SDS011;2121;48.062;7.850;2023-03-23T11:24:55;1.97;;;1.87;;
4214;SDS011;2121;48.062;7.850;2023-03-23T11:27:26;3.37;;;2.50;;
4214;SDS011;2121;48.062;7.850;2023-03-23T11:29:54;4.67;;;1.93;;
4214;SDS011;2121;48.062;7.850;2023-03-23T11:32:24;3.30;;;2.63;;
4214;SDS011;2121;48.062;7.850;2023-03-23T11:34:57;2.50;;;2.30;;
4214;SDS011;2121;48.062;7.850;2023-03-23T11:37:32;4.97;;;2.33;;
4214;SDS011;2121;48.062;7.850;2023-03-23T11:45:25;2.33;;;2.13;;
4214;SDS011;2121;48.062;7.850;2023-03-23T11:48:13;2.30;;;2.10;;
4214;SDS011;2121;48.062;7.850;2023-03-23T11:53:50;2.27;;;2.07;;
4214;SDS011;2121;48.062;7.850;2023-03-23T11:56:51;2.23;;;2.13;;
4214;SDS011;2121;48.062;7.850;2023-03-23T11:59:25;2.43;;;2.23;;
4214;SDS011;2121;48.062;7.850;2023-03-23T12:08:30;2.30;;;2.10;;
4214;SDS011;2121;48.062;7.850;2023-03-23T12:17:42;2.93;;;2.23;;
4214;SDS011;2121;48.062;7.850;2023-03-23T12:26:33;2.50;;;2.10;;
4214;SDS011;2121;48.062;7.850;2023-03-23T12:32:02;6.40;;;4.10;;
4214;SDS011;2121;48.062;7.850;2023-03-23T12:35:30;12.53;;;7.50;;
4214;SDS011;2121;48.062;7.850;2023-03-23T12:43:24;8.33;;;5.57;;
4214;SDS011;2121;48.062;7.850;2023-03-23T12:46:19;3.03;;;2.83;;
4214;SDS011;2121;48.062;7.850;2023-03-23T12:57:16;3.20;;;2.27;;
4214;SDS011;2121;48.062;7.850;2023-03-23T12:59:49;2.47;;;2.27;;
4214;SDS011;2121;48.062;7.850;2023-03-23T13:02:44;4.60;;;2.87;;
4214;SDS011;2121;48.062;7.850;2023-03-23T13:10:47;2.50;;;2.30;;
4214;SDS011;2121;48.062;7.850;2023-03-23T13:13:18;2.17;;;2.07;;
4214;SDS011;2121;48.062;7.850;2023-03-23T13:19:37;3.60;;;2.60;;
4214;SDS011;2121;48.062;7.850;2023-03-23T13:22:13;2.60;;;2.40;;
4214;SDS011;2121;48.062;7.850;2023-03-23T13:24:57;2.60;;;2.10;;
4214;SDS011;2121;48.062;7.850;2023-03-23T13:27:27;2.47;;;2.27;;
4214;SDS011;2121;48.062;7.850;2023-03-23T13:29:55;2.93;;;2.63;;
4214;SDS011;2121;48.062;7.850;2023-03-23T13:32:28;3.27;;;2.63;;
4214;SDS011;2121;48.062;7.850;2023-03-23T13:35:05;2.03;;;1.93;;
4214;SDS011;2121;48.062;7.850;2023-03-23T13:37:41;3.23;;;2.40;;
4214;SDS011;2121;48.062;7.850;2023-03-23T13:42:50;1.93;;;1.73;;
4214;SDS011;2121;48.062;7.850;2023-03-23T13:48:16;2.37;;;2.20;;
4214;SDS011;2121;48.062;7.850;2023-03-23T13:50:54;2.13;;;2.03;;
4214;SDS011;2121;48.062;7.850;2023-03-23T13:53:30;2.70;;;2.43;;
4214;SDS011;2121;48.062;7.850;2023-03-23T14:01:55;2.73;;;2.13;;
4214;SDS011;2121;48.062;7.850;2023-03-23T14:05:23;2.10;;;2.00;;
4214;SDS011;2121;48.062;7.850;2023-03-23T14:08:03;2.43;;;2.30;;
4214;SDS011;2121;48.062;7.850;2023-03-23T14:10:51;2.20;;;2.10;;
4214;SDS011;2121;48.062;7.850;2023-03-23T14:13:32;2.13;;;2.03;;
4214;SDS011;2121;48.062;7.850;2023-03-23T14:16:21;3.17;;;2.37;;
4214;SDS011;2121;48.062;7.850;2023-03-23T14:19:01;4.43;;;2.27;;
4214;SDS011;2121;48.062;7.850;2023-03-23T14:24:18;2.30;;;2.10;;
4214;SDS011;2121;48.062;7.850;2023-03-23T14:26:48;2.67;;;2.47;;
4214;SDS011;2121;48.062;7.850;2023-03-23T14:29:17;3.73;;;2.30;;
4214;SDS011;2121;48.062;7.850;2023-03-23T14:31:47;2.70;;;2.23;;
4214;SDS011;2121;48.062;7.850;2023-03-23T14:34:19;2.20;;;2.00;;
4214;SDS011;2121;48.062;7.850;2023-03-23T14:36:50;3.30;;;2.47;;
4214;SDS011;2121;48.062;7.850;2023-03-23T14:41:47;2.40;;;2.17;;
4214;SDS011;2121;48.062;7.850;2023-03-23T14:44:16;2.27;;;2.10;;
4214;SDS011;2121;48.062;7.850;2023-03-23T14:46:49;2.07;;;1.97;;
4214;SDS011;2121;48.062;7.850;2023-03-23T14:49:16;3.20;;;1.70;;
4214;SDS011;2121;48.062;7.850;2023-03-23T14:51:47;4.37;;;2.10;;
4214;SDS011;2121;48.062;7.850;2023-03-23T14:54:22;1.90;;;1.70;;
4214;SDS011;2121;48.062;7.850;2023-03-23T14:56:50;2.50;;;2.30;;
4214;SDS011;2121;48.062;7.850;2023-03-23T14:59:16;2.03;;;1.93;;
4214;SDS011;2121;48.062;7.850;2023-03-23T15:01:43;2.67;;;1.60;;
4214;SDS011;2121;48.062;7.850;2023-03-23T15:04:17;2.17;;;2.07;;
4214;SDS011;2121;48.062;7.850;2023-03-23T15:06:50;1.77;;;1.67;;
4214;SDS011;2121;48.062;7.850;2023-03-23T15:09:27;2.27;;;2.10;;
4214;SDS011;2121;48.062;7.850;2023-03-23T15:12:00;2.60;;;2.33;;
4214;SDS011;2121;48.062;7.850;2023-03-23T15:14:29;2.30;;;2.10;;
4214;SDS011;2121;48.062;7.850;2023-03-23T15:17:02;2.37;;;2.17;;
4214;SDS011;2121;48.062;7.850;2023-03-23T15:19:31;1.90;;;1.80;;
4214;SDS011;2121;48.062;7.850;2023-03-23T15:22:04;1.77;;;1.67;;
4214;SDS011;2121;48.062;7.850;2023-03-23T15:27:40;3.40;;;1.90;;
4214;SDS011;2121;48.062;7.850;2023-03-23T15:30:30;2.27;;;2.07;;
4214;SDS011;2121;48.062;7.850;2023-03-23T15:33:04;5.90;;;2.20;;
4214;SDS011;2121;48.062;7.850;2023-03-23T15:35:39;2.10;;;2.00;;
4214;SDS011;2121;48.062;7.850;2023-03-23T15:38:29;3.43;;;2.20;;
4214;SDS011;2121;48.062;7.850;2023-03-23T15:40:59;2.70;;;2.50;;
4214;SDS011;2121;48.062;7.850;2023-03-23T15:43:34;10.07;;;2.47;;
4214;SDS011;2121;48.062;7.850;2023-03-23T15:48:51;2.10;;;1.80;;
4214;SDS011;2121;48.062;7.850;2023-03-23T15:51:40;2.30;;;2.13;;
4214;SDS011;2121;48.062;7.850;2023-03-23T15:54:15;2.50;;;2.30;;
4214;SDS011;2121;48.062;7.850;2023-03-23T15:56:42;1.90;;;1.80;;
4214;SDS011;2121;48.062;7.850;2023-03-23T15:59:09;2.50;;;2.40;;
4214;SDS011;2121;48.062;7.850;2023-03-23T16:01:36;10.13;;;2.37;;
4214;SDS011;2121;48.062;7.850;2023-03-23T16:04:05;2.47;;;2.27;;
4214;SDS011;2121;48.062;7.850;2023-03-23T16:06:35;2.93;;;2.60;;
4214;SDS011;2121;48.062;7.850;2023-03-23T16:09:02;3.10;;;2.80;;
4214;SDS011;2121;48.062;7.850;2023-03-23T16:11:30;3.00;;;2.17;;
4214;SDS011;2121;48.062;7.850;2023-03-23T16:13:57;2.23;;;2.13;;
4214;SDS011;2121;48.062;7.850;2023-03-23T16:16:25;3.40;;;3.10;;
4214;SDS011;2121;48.062;7.850;2023-03-23T16:18:57;3.00;;;2.67;;
4214;SDS011;2121;48.062;7.850;2023-03-23T16:21:23;3.43;;;3.03;;
4214;SDS011;2121;48.062;7.850;2023-03-23T16:23:49;3.00;;;2.73;;
4214;SDS011;2121;48.062;7.850;2023-03-23T16:26:15;2.30;;;2.13;;
4214;SDS011;2121;48.062;7.850;2023-03-23T16:28:41;3.40;;;2.87;;
4214;SDS011;2121;48.062;7.850;2023-03-23T16:31:08;3.30;;;2.83;;
4214;SDS011;2121;48.062;7.850;2023-03-23T16:33:34;2.73;;;2.53;;
4214;SDS011;2121;48.062;7.850;2023-03-23T16:36:00;2.93;;;2.37;;
4214;SDS011;2121;48.062;7.850;2023-03-23T16:38:26;2.60;;;2.40;;
4214;SDS011;2121;48.062;7.850;2023-03-23T16:40:52;2.83;;;2.63;;
4214;SDS011;2121;48.062;7.850;2023-03-23T16:43:18;2.60;;;2.30;;
4214;SDS011;2121;48.062;7.850;2023-03-23T16:45:45;3.67;;;2.37;;
4214;SDS011;2121;48.062;7.850;2023-03-23T16:48:12;3.47;;;2.07;;
4214;SDS011;2121;48.062;7.850;2023-03-23T16:50:40;2.57;;;2.37;;
4214;SDS011;2121;48.062;7.850;2023-03-23T16:53:07;3.00;;;2.80;;
4214;SDS011;2121;48.062;7.850;2023-03-23T16:55:35;4.70;;;3.67;;
4214;SDS011;2121;48.062;7.850;2023-03-23T16:58:02;4.40;;;3.40;;
4214;SDS011;2121;48.062;7.850;2023-03-23T17:00:28;7.50;;;2.80;;
4214;SDS011;2121;48.062;7.850;2023-03-23T17:02:54;3.00;;;2.70;;
4214;SDS011;2121;48.062;7.850;2023-03-23T17:05:22;7.53;;;2.50;;
4214;SDS011;2121;48.062;7.850;2023-03-23T17:07:51;2.60;;;1.87;;
4214;SDS011;2121;48.062;7.850;2023-03-23T17:10:22;3.40;;;2.83;;
4214;SDS011;2121;48.062;7.850;2023-03-23T17:12:51;2.47;;;2.20;;
4214;SDS011;2121;48.062;7.850;2023-03-23T17:15:18;2.13;;;1.90;;
4214;SDS011;2121;48.062;7.850;2023-03-23T17:17:44;2.77;;;2.57;;
4214;SDS011;2121;48.062;7.850;2023-03-23T17:20:10;2.43;;;2.20;;
4214;SDS011;2121;48.062;7.850;2023-03-23T17:22:37;3.10;;;2.50;;
4214;SDS011;2121;48.062;7.850;2023-03-23T17:25:05;4.27;;;2.17;;
4214;SDS011;2121;48.062;7.850;2023-03-23T17:27:32;4.83;;;2.87;;
4214;SDS011;2121;48.062;7.850;2023-03-23T17:29:59;2.87;;;2.60;;
4214;SDS011;2121;48.062;7.850;2023-03-23T17:32:25;2.83;;;2.63;;
4214;SDS011;2121;48.062;7.850;2023-03-23T17:34:51;3.20;;;2.30;;
4214;SDS011;2121;48.062;7.850;2023-03-23T17:37:18;3.43;;;2.30;;
4214;SDS011;2121;48.062;7.850;2023-03-23T17:39:46;2.83;;;2.63;;